Data for 11/16/2006

Time Sea-Level Adjusted Pressure Absolute Pressure Temperature Relative Humidity Dew Point   
(mb) (inHg) (mb) (inHg) (C) (F) (%) (C) (F)
00:05 1009 29.8 838 24.75 8.1 46.6 30 -8.6 16.5
00:10 1009 29.8 838 24.75 7.8 46 31 -8.4 16.8
00:15 1009 29.8 838 24.75 7.4 45.3 31 -8.7 16.4
00:20 1009 29.8 838 24.75 7.3 45.2 31 -8.6 16.6
00:25 1009 29.8 838 24.75 7.2 45 31 -8.8 16.1
00:30 1009 29.8 838 24.75 7.3 45.1 31 -8.6 16.5
00:35 1009 29.8 838 24.75 7.3 45.2 30 -9.1 15.7
00:40 1009 29.8 838 24.75 7.5 45.5 30 -8.9 15.9
00:45 1009 29.8 838 24.75 7.4 45.4 30 -9.1 15.6
00:50 1008 29.77 838 24.75 7.7 45.9 29 -9.3 15.3
00:55 1009 29.8 838 24.75 7.8 46.1 29 -9 15.8
01:00 1008 29.77 838 24.75 7.9 46.2 29 -9.1 15.6
01:05 1008 29.77 837 24.72 8.4 47.1 29 -8.7 16.3
01:10 1008 29.77 838 24.75 8.5 47.3 29 -8.7 16.3
01:15 1008 29.77 838 24.75 8.8 47.8 28 -8.7 16.3
01:20 1008 29.77 838 24.75 8.9 48 29 -8.4 16.9
01:25 1008 29.77 837 24.72 8.7 47.6 29 -8.5 16.7
01:30 1008 29.77 837 24.72 8.7 47.6 29 -8.6 16.6
01:35 1008 29.77 837 24.72 8.8 47.8 28 -8.8 16.1
01:40 1008 29.77 837 24.72 8.8 47.8 29 -8.4 16.8
01:45 1008 29.77 837 24.72 8.7 47.7 29 -8.5 16.7
01:50 1008 29.77 837 24.72 8.7 47.6 30 -7.9 17.8
01:55 1008 29.77 837 24.72 8.3 47 30 -8.2 17.2
02:00 1008 29.77 837 24.72 8.5 47.2 30 -8.2 17.2
02:05 1008 29.77 837 24.72 8.3 47 31 -7.9 17.8
02:10 1008 29.77 837 24.72 8.8 47.9 28 -8.8 16.2
02:15 1008 29.77 837 24.72 9.3 48.7 30 -7.2 19
02:20 1008 29.77 837 24.72 9 48.3 29 -8 17.5
02:25 1008 29.77 837 24.72 8.8 47.8 30 -7.8 18
02:30 1008 29.77 837 24.72 8.4 47.1 31 -7.6 18.4
02:35 1008 29.77 837 24.72 8.1 46.6 32 -7.7 18.2
02:40 1008 29.77 837 24.72 8 46.5 33 -7.4 18.7
02:45 1008 29.77 837 24.72 8.1 46.5 34 -6.9 19.6
02:50 1008 29.77 837 24.72 8.2 46.8 36 -5.9 21.3
02:55 1008 29.77 837 24.72 8.5 47.4 38 -4.8 23.3
03:00 1008 29.77 837 24.72 8.9 47.9 39 -4.5 23.9
03:05 1008 29.77 837 24.72 8.9 48 39 -4.3 24.3
03:10 1008 29.77 837 24.72 8.8 47.9 39 -4.3 24.3
03:15 1008 29.77 837 24.72 8.8 47.8 39 -4.5 23.9
03:20 1008 29.77 837 24.72 8.1 46.6 43 -3.8 25.2
03:25 1008 29.77 837 24.72 6.7 44.1 44 -4.5 23.8
03:30 1008 29.77 837 24.72 6.4 43.5 45 -4.7 23.6
03:35 1008 29.77 837 24.72 6.4 43.4 45 -4.6 23.7
03:40 1008 29.77 837 24.72 6 42.9 47 -4.4 24
03:45 1008 29.77 837 24.72 5.7 42.2 47 -4.9 23.3
03:50 1007 29.74 837 24.72 5.8 42.4 46 -5 22.9
03:55 1007 29.74 837 24.72 5.6 42.1 47 -4.7 23.5
04:00 1007 29.74 837 24.72 5.4 41.8 47 -5 22.9
04:05 1007 29.74 837 24.72 5.5 41.8 47 -5.1 22.9
04:10 1007 29.74 836 24.69 5.4 41.7 46 -5.2 22.6
04:15 1007 29.74 836 24.69 5.4 41.7 46 -5.3 22.5
04:20 1007 29.74 836 24.69 5.4 41.6 46 -5.2 22.6
04:25 1007 29.74 836 24.69 5.3 41.5 46 -5.3 22.5
04:30 1007 29.74 836 24.69 5.3 41.5 47 -5.3 22.5
04:35 1007 29.74 836 24.69 5.3 41.5 46 -5.3 22.4
04:40 1007 29.74 836 24.69 5.3 41.5 46 -5.5 22.1
04:45 1007 29.74 836 24.69 5.5 41.9 43 -6.2 20.8
04:50 1007 29.74 836 24.69 6.6 43.9 42 -5.5 22
04:55 1007 29.74 836 24.69 6.8 44.3 38 -6.6 20.1
05:00 1007 29.74 837 24.72 7.4 45.4 38 -5.8 21.6
05:05 1007 29.74 837 24.72 7.2 45 38 -6.1 21.1
05:10 1007 29.74 837 24.72 7.8 46 34 -7.2 19.1
05:15 1007 29.74 837 24.72 8 46.3 37 -6 21.2
05:20 1007 29.74 837 24.72 7.5 45.6 36 -6.6 20.1
05:25 1007 29.74 837 24.72 7.5 45.6 36 -6.6 20.1
05:30 1007 29.74 837 24.72 7.8 46 34 -6.9 19.5
05:35 1007 29.74 837 24.72 7.7 45.9 36 -6.6 20.2
05:40 1008 29.77 837 24.72 7.7 45.8 35 -6.9 19.6
05:45 1007 29.74 837 24.72 7.7 45.8 36 -6.5 20.2
05:50 1008 29.77 837 24.72 7.6 45.7 35 -6.8 19.8
05:55 1007 29.74 837 24.72 7.6 45.6 34 -7.4 18.6
06:00 1007 29.74 836 24.69 7.8 46 34 -7.2 19
06:05 1007 29.74 836 24.69 7.2 45 36 -6.8 19.8
06:10 1007 29.74 836 24.69 7.6 45.7 34 -7.1 19.2
06:15 1007 29.74 836 24.69 7.8 46.1 35 -6.8 19.8
06:20 1007 29.74 836 24.69 7.8 46.1 35 -6.6 20.1
06:25 1007 29.74 836 24.69 7.9 46.1 35 -6.9 19.7
06:30 1007 29.74 836 24.69 8 46.5 35 -6.5 20.3
06:35 1007 29.74 836 24.69 7.9 46.2 36 -6.2 20.9
06:40 1007 29.74 837 24.72 7.8 46 38 -5.8 21.5
06:45 1007 29.74 837 24.72 7.9 46.1 37 -5.8 21.5
06:50 1007 29.74 837 24.72 7.8 46.1 38 -5.5 22.1
06:55 1007 29.74 837 24.72 7.7 45.9 40 -5.2 22.7
07:00 1008 29.77 837 24.72 7.7 45.8 41 -4.6 23.6
07:05 1008 29.77 837 24.72 7.7 45.8 41 -4.8 23.3
07:10 1008 29.77 837 24.72 7.5 45.4 41 -4.9 23.2
07:15 1008 29.77 837 24.72 7.5 45.5 41 -4.8 23.4
07:20 1008 29.77 837 24.72 7.4 45.3 42 -4.8 23.4
07:25 1008 29.77 837 24.72 7.5 45.5 42 -4.7 23.5
07:30 1008 29.77 837 24.72 7.6 45.7 42 -4.5 23.9
07:35 1008 29.77 837 24.72 7.6 45.7 42 -4.4 24.1
07:40 1008 29.77 837 24.72 7.6 45.8 43 -4.1 24.6
07:45 1008 29.77 837 24.72 7.5 45.5 44 -3.9 24.9
07:50 1008 29.77 837 24.72 7.4 45.2 45 -3.8 25.1
07:55 1008 29.77 837 24.72 7.2 45 45 -3.9 24.9
08:00 1008 29.77 837 24.72 7.3 45.1 46 -3.7 25.4
08:05 1008 29.77 837 24.72 7.4 45.4 44 -4.1 24.7
08:10 1008 29.77 837 24.72 7.6 45.7 44 -3.9 25
08:15 1008 29.77 837 24.72 7.5 45.6 44 -3.8 25.2
08:20 1008 29.77 837 24.72 7.4 45.3 44 -4 24.8
08:25 1008 29.77 837 24.72 7.5 45.6 44 -3.9 25
08:30 1008 29.77 837 24.72 7.6 45.6 44 -3.8 25.1
08:35 1008 29.77 837 24.72 7.5 45.6 45 -3.5 25.7
08:40 1008 29.77 837 24.72 7.3 45.2 47 -3.3 26.1
08:45 1008 29.77 837 24.72 7.4 45.3 48 -3 26.6
08:50 1008 29.77 837 24.72 7 44.6 48 -3.2 26.3
08:55 1008 29.77 837 24.72 7.4 45.2 46 -3.4 25.9
09:00 1008 29.77 837 24.72 7.8 46 45 -3.3 26.1
09:05 1008 29.77 837 24.72 8.1 46.6 45 -3.1 26.4
09:10 1008 29.77 837 24.72 8.3 47 45 -3 26.5
09:15 1008 29.77 838 24.75 8.4 47.1 44 -3 26.5
09:20 1008 29.77 838 24.75 8.4 47.2 45 -2.7 27.2
09:25 1008 29.77 837 24.72 8.4 47.1 46 -2.5 27.5
09:30 1008 29.77 837 24.72 8.3 47 47 -2.4 27.7
09:35 1008 29.77 837 24.72 8.4 47.2 45 -2.7 27.2
09:40 1008 29.77 838 24.75 8.6 47.6 45 -2.6 27.2
09:45 1008 29.77 837 24.72 8.6 47.5 44 -3 26.6
09:50 1008 29.77 837 24.72 8.7 47.6 44 -3 26.6
09:55 1008 29.77 838 24.75 8.8 47.8 44 -2.8 26.9
10:00 1008 29.77 838 24.75 9.1 48.3 43 -2.7 27.1
10:05 1009 29.8 838 24.75 9.4 48.8 42 -2.8 27
10:10 1009 29.8 838 24.75 9.5 49.2 42 -2.8 26.9
10:15 1009 29.8 838 24.75 9.7 49.4 41 -3 26.7
10:20 1009 29.8 838 24.75 9.8 49.6 40 -3.2 26.2
10:25 1009 29.8 838 24.75 9.8 49.6 40 -3.1 26.4
10:30 1009 29.8 838 24.75 9.7 49.4 40 -3.3 26
10:35 1009 29.8 838 24.75 9.5 49.1 41 -3.1 26.4
10:40 1009 29.8 838 24.75 9.4 48.9 41 -3.2 26.3
10:45 1009 29.8 838 24.75 9.5 49.2 40 -3.4 25.9
10:50 1009 29.8 838 24.75 9.6 49.3 40 -3.4 25.9
10:55 1009 29.8 838 24.75 9.6 49.3 40 -3.3 26
11:00 1009 29.8 838 24.75 9.6 49.2 40 -3.3 26.1
11:05 1009 29.8 838 24.75 9.5 49 41 -3.2 26.3
11:10 1009 29.8 839 24.78 9.4 49 41 -3.1 26.4
11:15 1009 29.8 839 24.78 9.5 49 41 -3 26.7
11:20 1009 29.8 839 24.78 9.5 49.2 41 -2.9 26.8
11:25 1009 29.8 838 24.75 9.6 49.2 43 -2.4 27.6
11:30 1009 29.8 838 24.75 9.2 48.6 46 -1.9 28.5
11:35 1010 29.83 839 24.78 9.3 48.7 43 -2.6 27.4
11:40 1010 29.83 839 24.78 9.7 49.4 43 -2.2 28
11:45 1009 29.8 839 24.78 9.7 49.5 42 -2.7 27.2
11:50 1010 29.83 839 24.78 9.6 49.3 41 -2.9 26.8
11:55 1010 29.83 839 24.78 9.7 49.5 41 -2.8 26.9
12:00 1010 29.83 839 24.78 9.8 49.6 41 -2.9 26.8
12:05 1010 29.83 839 24.78 9.8 49.6 41 -3 26.6
12:10 1010 29.83 840 24.81 9.8 49.6 41 -2.8 26.9
12:15 1011 29.85 840 24.81 9.7 49.5 41 -2.7 27.1
12:20 1011 29.85 840 24.81 9.7 49.4 41 -3 26.6
12:25 1011 29.85 840 24.81 9.6 49.2 41 -3.1 26.4
12:30 1010 29.83 840 24.81 9.4 49 41 -3.1 26.4
12:35 1010 29.83 840 24.81 9.3 48.7 42 -2.8 26.9
12:40 1010 29.83 839 24.78 9.2 48.6 42 -3 26.6
12:45 1010 29.83 839 24.78 9.2 48.5 42 -3.1 26.5
12:50 1010 29.83 839 24.78 9.1 48.3 46 -1.9 28.6
12:55 1010 29.83 840 24.81 8.8 47.8 48 -1.5 29.4
13:00 1010 29.83 840 24.81 8.6 47.6 49 -1.5 29.4
13:05 1011 29.85 840 24.81 8.7 47.6 48 -1.7 28.9
13:10 1011 29.85 840 24.81 8.7 47.7 49 -1.3 29.6
13:15 1011 29.85 840 24.81 8.7 47.6 51 -0.8 30.5
13:20 1011 29.85 840 24.81 8.4 47.1 52 -0.9 30.4
13:25 1011 29.85 840 24.81 8 46.4 58 0.3 32.6
13:30 1011 29.85 840 24.81 7.4 45.3 60 0.1 32.1
13:35 1011 29.85 840 24.81 7.3 45.2 60 0.1 32.2
13:40 1011 29.85 840 24.81 7.4 45.3 58 -0.2 31.6
13:45 1011 29.85 840 24.81 7.5 45.5 58 -0.1 31.8
13:50 1011 29.85 840 24.81 7.5 45.6 59 -0 31.9
13:55 1011 29.85 841 24.83 7.5 45.5 61 0.6 33.1
14:00 1012 29.88 841 24.83 7.4 45.3 61 0.4 32.7
14:05 1012 29.88 841 24.83 7.5 45.4 59 -0 31.9
14:10 1012 29.88 841 24.83 7.5 45.5 60 0.3 32.5
14:15 1012 29.88 841 24.83 7.3 45.2 62 0.6 33
14:20 1012 29.88 841 24.83 7.2 44.9 63 0.7 33.3
14:25 1012 29.88 841 24.83 7 44.6 62 0.4 32.7
14:30 1012 29.88 841 24.83 6.8 44.3 65 0.6 33.2
14:35 1012 29.88 841 24.83 6.4 43.5 68 0.8 33.5
14:40 1012 29.88 841 24.83 5.9 42.6 70 0.9 33.6
14:45 1012 29.88 841 24.83 5.7 42.3 73 1.3 34.3
14:50 1012 29.88 842 24.86 5.5 41.8 77 1.7 35
14:55 1012 29.88 842 24.86 5.3 41.6 76 1.5 34.6
15:00 1012 29.88 842 24.86 5.3 41.5 77 1.6 34.9
15:05 1012 29.88 842 24.86 5.1 41.2 78 1.6 34.9
15:10 1012 29.88 842 24.86 5.1 41.2 76 1.2 34.2
15:15 1012 29.88 842 24.86 5.3 41.5 76 1.3 34.4
15:20 1013 29.91 842 24.86 5.4 41.7 75 1.4 34.4
15:25 1013 29.91 842 24.86 5.5 41.9 74 1.3 34.4
15:30 1013 29.91 842 24.86 5.6 42 75 1.4 34.6
15:35 1013 29.91 842 24.86 5.2 41.4 76 1.4 34.6
15:40 1013 29.91 842 24.86 5 40.9 77 1.3 34.3
15:45 1013 29.91 842 24.86 4.8 40.6 76 1 33.8
15:50 1013 29.91 842 24.86 4.9 40.8 76 1 33.7
15:55 1013 29.91 842 24.86 5.2 41.3 75 1 33.9
16:00 1013 29.91 842 24.86 5.2 41.4 75 1.2 34.1
16:05 1013 29.91 842 24.86 5.3 41.6 75 1.3 34.3
16:10 1013 29.91 842 24.86 5.2 41.3 75 1.1 33.9
16:15 1013 29.91 842 24.86 5.1 41.2 75 1.1 34.1
16:20 1013 29.91 842 24.86 5 41 74 0.7 33.2
16:25 1014 29.94 843 24.89 5.2 41.4 70 0.2 32.3
16:30 1014 29.94 843 24.89 5.6 42 68 0.2 32.3
16:35 1014 29.94 843 24.89 5.9 42.6 66 0 32
16:40 1014 29.94 843 24.89 6 42.9 65 -0.1 31.8
16:45 1014 29.94 843 24.89 6.1 43 64 -0.1 31.8
16:50 1014 29.94 843 24.89 6.1 43 66 0.2 32.4
16:55 1014 29.94 843 24.89 6 42.7 66 0.1 32.1
17:00 1014 29.94 844 24.92 6.2 43.1 59 -1.3 29.6
17:05 1014 29.94 844 24.92 6.5 43.7 61 -0.4 31.2
17:10 1014 29.94 844 24.92 6.4 43.5 56 -1.8 28.7
17:15 1014 29.94 844 24.92 6.6 43.8 50 -3.1 26.5
17:20 1014 29.94 844 24.92 6.7 44 49 -3.2 26.2
17:25 1014 29.94 844 24.92 6.6 43.9 47 -4 24.9
17:30 1014 29.94 844 24.92 6.4 43.6 45 -4.6 23.7
17:35 1015 29.97 844 24.92 6.2 43.2 46 -4.5 23.8
17:40 1015 29.97 844 24.92 6 42.9 47 -4.5 23.9
17:45 1015 29.97 844 24.92 5.8 42.5 47 -4.5 23.9
17:50 1015 29.97 844 24.92 5.7 42.2 47 -4.8 23.3
17:55 1015 29.97 844 24.92 5.5 41.9 46 -5.3 22.5
18:00 1015 29.97 844 24.92 5.4 41.8 46 -5.3 22.4
18:05 1015 29.97 844 24.92 5.4 41.7 46 -5.3 22.4
18:10 1015 29.97 844 24.92 5.4 41.7 45 -5.7 21.8
18:15 1015 29.97 845 24.95 5.3 41.6 45 -5.6 21.9
18:20 1015 29.97 845 24.95 5.3 41.6 45 -5.5 22
18:25 1016 30 845 24.95 5.2 41.4 47 -5.2 22.7
18:30 1016 30 845 24.95 5 41 49 -4.7 23.5
18:35 1016 30 845 24.95 4.7 40.5 48 -5.5 22.2
18:40 1016 30 845 24.95 4.5 40.2 43 -7.1 19.3
18:45 1016 30 845 24.95 4.4 39.9 49 -5.5 22.1
18:50 1016 30 845 24.95 4.2 39.6 48 -5.8 21.5
18:55 1016 30 845 24.95 4.2 39.5 48 -5.8 21.5
19:00 1016 30 845 24.95 4.3 39.8 42 -7.4 18.7
19:05 1016 30 845 24.95 4.6 40.3 44 -6.7 20
19:10 1016 30 845 24.95 4.6 40.3 42 -7.2 19.1
19:15 1016 30 845 24.95 4.7 40.5 40 -7.9 17.9
19:20 1016 30 846 24.98 4.7 40.4 39 -8.2 17.2
19:25 1016 30 846 24.98 4.7 40.4 35 -9.4 15.1
19:30 1017 30.03 846 24.98 4.6 40.4 37 -8.7 16.3
19:35 1017 30.03 846 24.98 4.3 39.7 42 -7.5 18.5
19:40 1017 30.03 846 24.98 4 39.2 41 -8.2 17.2
19:45 1017 30.03 846 24.98 3.9 39.1 38 -9.1 15.7
19:50 1017 30.03 846 24.98 4.1 39.3 37 -9.3 15.3
19:55 1017 30.03 846 24.98 4.1 39.4 38 -9 15.8
20:00 1017 30.03 846 24.98 4 39.2 37 -9.3 15.2
20:05 1017 30.03 846 24.98 3.9 38.9 38 -9.1 15.6
20:10 1017 30.03 846 24.98 3.8 38.8 38 -9.4 15.1
20:15 1017 30.03 846 24.98 3.8 38.8 38 -9.2 15.4
20:20 1017 30.03 846 24.98 3.8 38.8 39 -8.9 15.9
20:25 1017 30.03 846 24.98 3.8 38.9 40 -8.7 16.4
20:30 1017 30.03 846 24.98 3.6 38.5 43 -7.9 17.8
20:35 1017 30.03 846 24.98 3.5 38.2 46 -7.2 19
20:40 1017 30.03 846 24.98 3.1 37.5 47 -7.2 19
20:45 1017 30.03 846 24.98 2.8 37 49 -6.8 19.8
20:50 1017 30.03 847 25.01 2.8 37 52 -6.2 20.9
20:55 1017 30.03 847 25.01 2.3 36.2 55 -5.7 21.7
21:00 1017 30.03 847 25.01 2.2 35.9 56 -5.7 21.7
21:05 1017 30.03 847 25.01 2.4 36.4 55 -5.8 21.6
21:10 1018 30.06 847 25.01 2.5 36.6 53 -6 21.2
21:15 1018 30.06 847 25.01 2.7 36.9 53 -5.8 21.6
21:20 1018 30.06 847 25.01 2.5 36.6 55 -5.6 21.9
21:25 1018 30.06 847 25.01 2.3 36.1 56 -5.7 21.8
21:30 1018 30.06 847 25.01 2.5 36.6 53 -6 21.1
21:35 1018 30.06 847 25.01 3 37.4 52 -5.9 21.4
21:40 1018 30.06 847 25.01 3.1 37.6 52 -5.9 21.5
21:45 1018 30.06 847 25.01 3.1 37.6 52 -5.9 21.4
21:50 1018 30.06 847 25.01 2.8 37 54 -5.5 22.1
21:55 1018 30.06 847 25.01 2.3 36.1 56 -5.7 21.7
22:00 1018 30.06 847 25.01 2.1 35.7 58 -5.4 22.4
22:05 1018 30.06 847 25.01 1.9 35.5 59 -5.3 22.4
22:10 1018 30.06 847 25.01 2 35.6 61 -4.8 23.4
22:15 1018 30.06 847 25.01 1.9 35.5 63 -4.5 24
22:20 1018 30.06 847 25.01 1.8 35.2 65 -4.1 24.5
22:25 1018 30.06 847 25.01 1.7 35 63 -4.5 23.8
22:30 1018 30.06 847 25.01 1.8 35.2 63 -4.4 24.1
22:35 1018 30.06 847 25.01 1.8 35.2 61 -4.9 23.2
22:40 1018 30.06 847 25.01 1.8 35.2 62 -4.7 23.5
22:45 1018 30.06 847 25.01 1.4 34.6 63 -4.9 23.3
22:50 1018 30.06 847 25.01 1.3 34.3 63 -5 23
22:55 1018 30.06 847 25.01 1.1 34 63 -5.1 22.8
23:00 1018 30.06 847 25.01 0.9 33.6 64 -5.1 22.8
23:05 1018 30.06 847 25.01 0.7 33.3 64 -5.3 22.4
23:10 1018 30.06 847 25.01 0.9 33.6 64 -5.1 22.8
23:15 1018 30.06 847 25.01 0.9 33.5 64 -5.1 22.8
23:20 1018 30.06 847 25.01 0.8 33.5 63 -5.4 22.2
23:25 1018 30.06 847 25.01 0.8 33.5 64 -5.2 22.6
23:30 1018 30.06 847 25.01 1 33.7 63 -5.4 22.3
23:35 1018 30.06 847 25.01 1 33.8 61 -5.6 21.9
23:40 1018 30.06 847 25.01 1 33.8 60 -5.8 21.5
23:45 1018 30.06 847 25.01 1 33.8 62 -5.5 22
23:50 1018 30.06 847 25.01 0.5 33 67 -4.8 23.3
23:55 1018 30.06 847 25.01 -0.3 31.5 74 -4.4 24
24:00 1018 30.06 847 25.01 -0.2 31.7 72 -4.7 23.6